ADDS METAR Data INFO
IDs: Format: Raw Decoded Include TAF

Data at: 1512 UTC 11 Dec 2017

KDKX 111455Z AUTO 24003KT 10SM CLR 05/M01 A3015 RMK A01
KDKX 111435Z AUTO 24005KT 10SM CLR 04/M01 A3016 RMK A01
KDKX 111415Z AUTO 25006KT 10SM CLR 03/M01 A3016 RMK A01
KDKX 111355Z AUTO 24005KT 10SM CLR 01/M01 A3016 RMK A01
KDKX 111335Z AUTO 26005KT 10SM CLR 01/M02 A3017 RMK A01
KDKX 111315Z AUTO 00000KT 10SM CLR 00/M02 A3016 RMK A01
KDKX 111255Z AUTO 00000KT 10SM CLR M01/M03 A3016 RMK A01
KDKX 111235Z AUTO 00000KT 10SM M02/M04 A3017 RMK A01
KDKX 111215Z AUTO 00000KT M02/M04 A3016 RMK A01
KDKX 111155Z AUTO 27004KT 10SM M01/M03 A3017 RMK A01
KDKX 111135Z AUTO 27003KT 10SM CLR M01/M03 A3017 RMK A01
KDKX 111115Z AUTO 27004KT 10SM CLR 00/M03 A3016 RMK A01
KDKX 111055Z AUTO 27004KT 10SM CLR M00/M02 A3016 RMK A01
KDKX 111035Z AUTO 00000KT 10SM CLR M01/M03 A3017 RMK A01
KDKX 111015Z AUTO 00000KT 10SM CLR M01/M03 A3017 RMK A01
KDKX 110955Z AUTO 00000KT 10SM CLR M01/M02 A3018 RMK A01
KDKX 110935Z AUTO 00000KT 10SM M00/M01 A3018 RMK A01
KDKX 110915Z AUTO 00000KT 10SM M01/M04 A3017 RMK A01
KDKX 110855Z AUTO 26003KT 10SM CLR M01/M04 A3018 RMK A01
KDKX 110835Z AUTO 00000KT 10SM CLR M01/M03 A3019 RMK A01
KDKX 110815Z AUTO 00000KT 10SM M00/M02 A3019 RMK A01
KDKX 110755Z AUTO 00000KT 10SM M01/M04 A3019 RMK A01
KDKX 110735Z AUTO 00000KT 10SM CLR 00/M03 A3019 RMK A01
KDKX 110715Z AUTO 00000KT 10SM CLR 02/M03 A3019 RMK A01
KDKX 110655Z AUTO 00000KT 10SM CLR 01/M02 A3019 RMK A01
KDKX 110635Z AUTO 25004KT 10SM CLR 02/M04 A3019 RMK A01
KDKX 110615Z AUTO 25004KT 10SM CLR 02/M05 A3020 RMK A01
KDKX 110555Z AUTO 24003KT 10SM CLR 02/M05 A3021 RMK A01
KDKX 110535Z AUTO 23003KT 10SM CLR 02/M05 A3020 RMK A01
KDKX 110515Z AUTO 26005KT 10SM CLR 03/M05 A3021 RMK A01
KDKX 110455Z AUTO 25008KT 10SM CLR 03/M05 A3021 RMK A01
KDKX 110435Z AUTO 26007KT 10SM CLR 03/M05 A3021 RMK A01
KDKX 110415Z AUTO 25005KT 10SM CLR 02/M05 A3022 RMK A01
KDKX 110355Z AUTO 26008KT 10SM CLR 03/M05 A3021 RMK A01
KDKX 110335Z AUTO 25008KT 10SM CLR 02/M05 A3021 RMK A01
KDKX 110315Z AUTO 00000KT 10SM 02/M05 A3021 RMK A01
KDKX 110255Z AUTO 23004KT 10SM 02/M05 A3020 RMK A01
KDKX 110235Z AUTO 25005KT 10SM 03/M05 A3019 RMK A01
KDKX 110215Z AUTO 25004KT 10SM 03/M05 A3019 RMK A01
KDKX 110155Z AUTO 25007KT 10SM 03/M05 A3018 RMK A01
KDKX 110135Z AUTO 25007KT 10SM 03/M05 A3017 RMK A01
KDKX 110115Z AUTO 26007KT 10SM 04/M05 A3016 RMK A01
KDKX 110055Z AUTO 25007KT 10SM CLR 03/M06 A3015 RMK A01
KDKX 110035Z AUTO 25005KT 10SM CLR 03/M05 A3015 RMK A01
KDKX 110015Z AUTO 23003KT 10SM CLR 04/M06 A3015 RMK A01
KDKX 102355Z AUTO 26005KT 10SM CLR 04/M06 A3015 RMK A01
KDKX 102335Z AUTO 24005KT 10SM CLR 05/M06 A3014 RMK A01
KDKX 102315Z AUTO 24006KT 10SM FEW110 04/M05 A3014 RMK A01
KDKX 102255Z AUTO 23005KT 10SM CLR 04/M06 A3014 RMK A01
KDKX 102235Z AUTO 23006G11KT 10SM CLR 04/M06 A3015 RMK A01
KDKX 102215Z AUTO 23008KT 10SM CLR 05/M06 A3016 RMK A01
KDKX 102155Z AUTO 22008KT 10SM CLR 05/M06 A3016 RMK A01
KDKX 102135Z AUTO 23010KT 10SM CLR 06/M06 A3016 RMK A01
KDKX 102115Z AUTO 24010G16KT 10SM CLR 06/M06 A3017 RMK A01
KDKX 102055Z AUTO 23009G15KT 10SM CLR 06/M06 A3017 RMK A01
KDKX 102035Z AUTO 24010KT 10SM CLR 06/M06 A3017 RMK A01
KDKX 102015Z AUTO 25007KT 220V280 10SM CLR 06/M06 A3017 RMK A01
KDKX 101955Z AUTO 24010G15KT 10SM CLR 06/M06 A3018 RMK A01
KDKX 101935Z AUTO 24008G15KT 200V260 10SM CLR 05/M06 A3018 RMK A01
KDKX 101915Z AUTO 23010G16KT 10SM CLR 05/M07 A3018 RMK A01
KDKX 101855Z AUTO 24009KT 10SM CLR 05/M07 A3019 RMK A01
KDKX 101835Z AUTO 22008G17KT 10SM CLR 05/M07 A3019 RMK A01
KDKX 101815Z AUTO 24011G16KT 10SM CLR 05/M07 A3020 RMK A01
KDKX 101755Z AUTO 24010KT 10SM CLR 04/M06 A3021 RMK A01
KDKX 101735Z AUTO 25010KT 10SM CLR 04/M07 A3022 RMK A01
KDKX 101715Z AUTO 25008KT 210V270 10SM CLR 03/M07 A3024 RMK A01
KDKX 101655Z AUTO 25010G15KT 10SM CLR 03/M07 A3025 RMK A01
KDKX 101635Z AUTO 24010KT 10SM CLR 02/M07 A3026 RMK A01
KDKX 101615Z AUTO 22008KT 10SM CLR 02/M07 A3026 RMK A01
KDKX 101555Z AUTO 26007G13KT 10SM CLR 02/M07 A3027 RMK A01
KDKX 101535Z AUTO VRB05KT 10SM CLR 02/M07 A3027 RMK A01
KDKX 101515Z AUTO VRB07KT 10SM CLR 01/M06 A3028 RMK A01
KDKX 101455Z AUTO 21007KT 10SM CLR 01/M06 A3028 RMK A01
KDKX 101435Z AUTO 23006KT 10SM CLR 00/M06 A3028 RMK A01
KDKX 101415Z AUTO 24007KT 10SM CLR M00/M06 A3027 RMK A01
KDKX 101355Z AUTO 25004KT 10SM CLR M01/M06 A3027 RMK A01
KDKX 101335Z AUTO 25004KT 10SM CLR M02/M06 A3027 RMK A01
KDKX 101315Z AUTO 26004KT 10SM CLR M02/M07 A3026 RMK A01
KDKX 101255Z AUTO 00000KT 10SM CLR M03/M07 A3025 RMK A01
KDKX 101235Z AUTO 25004KT 10SM CLR M03/M07 A3025 RMK A01
KDKX 101215Z AUTO 00000KT 10SM CLR M03/M07 A3024 RMK A01
KDKX 101155Z AUTO 00000KT 10SM CLR M03/M06 A3024 RMK A01
KDKX 101135Z AUTO 00000KT 10SM CLR M02/M06 A3023 RMK A01
KDKX 101115Z AUTO 00000KT 10SM CLR M01/M07 A3022 RMK A01
KDKX 101055Z AUTO 00000KT 10SM CLR M02/M08 A3021 RMK A01
KDKX 101035Z AUTO 00000KT 10SM CLR M01/M08 A3021 RMK A01
KDKX 101015Z AUTO VRB03KT 10SM CLR M01/M08 A3021 RMK A01
KDKX 100955Z AUTO 29004KT 10SM M01/M08 A3021 RMK A01
KDKX 100935Z AUTO 29004KT 10SM M01/M08 A3020 RMK A01
KDKX 100915Z AUTO 00000KT 10SM M01/M07 A3021 RMK A01
KDKX 100855Z AUTO 00000KT 10SM FEW044 M01/M08 A3020 RMK A01
KDKX 100835Z AUTO 00000KT 10SM FEW042 M00/M08 A3020 RMK A01
KDKX 100815Z AUTO VRB03KT 10SM BKN040 BKN045 00/M08 A3020 RMK A01
KDKX 100755Z AUTO 30006KT 10SM OVC038 00/M08 A3020 RMK A01
KDKX 100735Z AUTO 00000KT 10SM OVC040 01/M08 A3019 RMK A01
KDKX 100715Z AUTO VRB04KT 10SM 01/M08 A3018 RMK A01
KDKX 100655Z AUTO VRB05KT 10SM 01/M07 A3017 RMK A01
KDKX 100635Z AUTO VRB04KT 10SM OVC039 01/M07 A3017 RMK A01
KDKX 100615Z AUTO 00000KT 10SM OVC036 01/M05 A3016 RMK A01
KDKX 100555Z AUTO 29006KT 10SM OVC039 01/M05 A3017 RMK A01
KDKX 100535Z AUTO 26006KT 10SM OVC040 01/M05 A3016 RMK A01
KDKX 100515Z AUTO 25005KT 10SM OVC040 01/M04 A3016 RMK A01
KDKX 100455Z AUTO 24005KT 10SM OVC040 01/M04 A3015 RMK A01
KDKX 100435Z AUTO 25006KT 10SM BKN042 OVC050 01/M04 A3015 RMK A01
KDKX 100415Z AUTO 25006KT 10SM SCT043 OVC050 01/M04 A3015 RMK A01
KDKX 100355Z AUTO 24007KT 10SM OVC047 01/M04 A3014 RMK A01
KDKX 100335Z AUTO 24005KT 10SM OVC050 01/M04 A3013 RMK A01
KDKX 100315Z AUTO 26006KT 8SM SCT040 BKN047 OVC055 01/M04 A3012 RMK A01